createdAt,value
2022-07-27T00:01:12.925Z,1.60
2022-07-27T00:03:40.705Z,1.43
2022-07-27T00:06:08.490Z,1.80
2022-07-27T00:08:35.918Z,1.80
2022-07-27T00:11:03.716Z,1.30
2022-07-27T00:13:31.302Z,1.43
2022-07-27T00:15:58.794Z,1.43
2022-07-27T00:18:27.720Z,1.60
2022-07-27T00:20:55.230Z,1.50
2022-07-27T00:23:22.717Z,1.67
2022-07-27T00:25:50.192Z,1.70
2022-07-27T00:28:17.634Z,1.23
2022-07-27T00:30:45.112Z,1.70
2022-07-27T00:33:17.216Z,1.37
2022-07-27T00:35:46.441Z,1.73
2022-07-27T00:38:13.937Z,1.70
2022-07-27T00:40:41.629Z,1.40
2022-07-27T00:43:09.163Z,1.60
2022-07-27T00:45:40.225Z,1.80
2022-07-27T00:48:07.751Z,1.50
2022-07-27T00:50:35.832Z,1.93
2022-07-27T00:53:05.889Z,1.77
2022-07-27T00:55:33.877Z,1.90
2022-07-27T00:58:01.799Z,1.30
2022-07-27T01:00:29.330Z,1.40
2022-07-27T01:02:57.295Z,1.70
2022-07-27T01:05:35.893Z,1.30
2022-07-27T01:08:07.809Z,1.53
2022-07-27T01:10:35.634Z,1.37
2022-07-27T01:13:03.728Z,1.40
2022-07-27T01:15:31.406Z,1.43
2022-07-27T01:18:04.486Z,1.53
2022-07-27T01:20:33.661Z,1.87
2022-07-27T01:23:02.490Z,1.50
2022-07-27T01:25:29.982Z,1.80
2022-07-27T01:27:57.489Z,1.60
2022-07-27T01:30:27.805Z,1.70
2022-07-27T01:33:00.605Z,1.50
2022-07-27T01:35:28.071Z,1.33
2022-07-27T01:37:55.533Z,1.70
2022-07-27T01:40:24.529Z,1.47
2022-07-27T01:42:52.032Z,1.40
2022-07-27T01:45:19.904Z,1.60
2022-07-27T01:47:47.388Z,2.10
2022-07-27T01:50:14.877Z,1.50
2022-07-27T01:52:42.304Z,1.60
2022-07-27T01:55:11.100Z,1.60
2022-07-27T01:57:39.983Z,1.50
2022-07-27T02:00:09.368Z,1.47
2022-07-27T02:02:37.085Z,1.67
2022-07-27T02:05:04.688Z,1.60
2022-07-27T02:07:32.273Z,1.40
2022-07-27T02:09:59.731Z,1.73
2022-07-27T02:12:35.474Z,1.60
2022-07-27T02:15:05.755Z,1.60
2022-07-27T02:17:33.810Z,1.80
2022-07-27T02:20:02.727Z,1.43
2022-07-27T02:22:30.240Z,1.50
2022-07-27T02:24:58.206Z,1.57
2022-07-27T02:27:25.915Z,1.83
2022-07-27T02:29:53.745Z,1.30
2022-07-27T02:32:22.738Z,1.60
2022-07-27T02:34:50.371Z,1.40
2022-07-27T02:37:17.995Z,1.70
2022-07-27T02:39:45.487Z,1.80
2022-07-27T02:42:13.052Z,1.40
2022-07-27T02:44:41.004Z,1.40
2022-07-27T02:47:08.445Z,1.43
2022-07-27T02:49:38.413Z,1.57
2022-07-27T02:52:06.212Z,1.67
2022-07-27T02:54:34.864Z,1.40
2022-07-27T02:57:04.716Z,1.70
2022-07-27T02:59:32.219Z,1.70
2022-07-27T03:01:59.712Z,2.10
2022-07-27T03:04:27.291Z,1.60
2022-07-27T03:06:56.259Z,1.50
2022-07-27T03:09:32.819Z,1.50
2022-07-27T03:12:00.895Z,1.30
2022-07-27T03:14:28.372Z,1.83
2022-07-27T03:16:55.838Z,1.67
2022-07-27T03:19:28.268Z,1.27
2022-07-27T03:21:58.856Z,1.43
2022-07-27T03:24:26.347Z,1.40
2022-07-27T03:26:53.826Z,1.40
2022-07-27T03:29:21.279Z,1.40
2022-07-27T03:31:48.767Z,1.50
2022-07-27T03:34:16.269Z,1.50
2022-07-27T03:36:44.495Z,1.77
2022-07-27T03:39:14.116Z,1.70
2022-07-27T03:41:41.880Z,1.70
2022-07-27T03:44:09.383Z,1.70
2022-07-27T03:46:36.861Z,1.40
2022-07-27T03:49:14.111Z,2.00
2022-07-27T03:51:42.724Z,1.50
2022-07-27T03:54:10.527Z,1.50
2022-07-27T03:56:39.476Z,1.60
2022-07-27T03:59:06.932Z,1.50
2022-07-27T04:01:34.484Z,1.40
2022-07-27T04:04:01.968Z,1.47
2022-07-27T04:06:29.507Z,1.60
2022-07-27T04:09:07.850Z,1.50
2022-07-27T04:11:37.598Z,1.87
2022-07-27T04:14:11.269Z,1.60
2022-07-27T04:16:40.507Z,1.50
2022-07-27T04:19:08.498Z,1.57
2022-07-27T04:21:36.348Z,1.60
2022-07-27T04:24:03.975Z,1.40
2022-07-27T04:26:31.526Z,1.53
2022-07-27T04:28:59.022Z,1.90
2022-07-27T04:31:27.819Z,1.60
2022-07-27T04:33:55.295Z,1.70
2022-07-27T04:36:22.744Z,2.27
2022-07-27T04:38:50.243Z,1.60
2022-07-27T04:41:17.825Z,1.80
2022-07-27T04:43:45.429Z,1.90
2022-07-27T04:46:15.563Z,1.83
2022-07-27T04:48:49.133Z,1.37
2022-07-27T04:51:17.330Z,1.50
2022-07-27T04:53:53.367Z,1.60
2022-07-27T04:56:26.025Z,1.93
2022-07-27T04:58:53.456Z,1.57
2022-07-27T05:01:22.797Z,1.57
2022-07-27T05:03:51.851Z,1.80
2022-07-27T05:06:19.370Z,1.70
2022-07-27T05:08:46.821Z,1.63
2022-07-27T05:11:14.286Z,2.10
2022-07-27T05:13:41.804Z,1.70
2022-07-27T05:16:10.587Z,2.47
2022-07-27T05:18:38.626Z,1.60
2022-07-27T05:21:08.204Z,2.00
2022-07-27T05:23:35.612Z,1.90
2022-07-27T05:26:03.129Z,1.50
2022-07-27T05:28:30.675Z,1.70
2022-07-27T05:30:58.172Z,1.80
2022-07-27T05:33:25.893Z,1.93
2022-07-27T05:35:53.367Z,1.60
2022-07-27T05:38:22.486Z,1.67
2022-07-27T05:40:50.029Z,1.73
2022-07-27T05:43:17.534Z,1.80
2022-07-27T05:45:45.074Z,1.90
2022-07-27T05:48:12.553Z,1.80
2022-07-27T05:50:40.044Z,1.53
2022-07-27T05:53:07.476Z,2.10
2022-07-27T05:55:36.371Z,1.67
2022-07-27T05:58:03.835Z,2.00
2022-07-27T06:00:31.309Z,1.50
2022-07-27T06:02:58.793Z,1.87
2022-07-27T06:05:26.468Z,1.57
2022-07-27T06:08:06.407Z,1.60
2022-07-27T06:10:34.769Z,2.10
2022-07-27T06:13:04.261Z,1.60
2022-07-27T06:15:31.898Z,1.80
2022-07-27T06:17:59.447Z,1.80
2022-07-27T06:20:27.242Z,1.90
2022-07-27T06:22:55.564Z,1.73
2022-07-27T06:25:33.962Z,1.53
2022-07-27T06:28:03.647Z,1.90
2022-07-27T06:30:31.105Z,1.60
2022-07-27T06:32:58.604Z,1.80
2022-07-27T06:35:27.184Z,1.53
2022-07-27T06:37:54.803Z,1.53
2022-07-27T06:40:22.283Z,1.70
2022-07-27T06:42:50.040Z,2.00
2022-07-27T06:45:18.849Z,1.73
2022-07-27T06:47:49.914Z,1.47
2022-07-27T06:50:17.841Z,1.67
2022-07-27T06:52:45.403Z,1.70
2022-07-27T06:55:12.927Z,1.67
2022-07-27T06:57:40.435Z,1.50
2022-07-27T07:00:08.801Z,1.60
2022-07-27T07:02:37.605Z,1.80
2022-07-27T07:05:05.416Z,1.70
2022-07-27T07:07:32.915Z,1.40
2022-07-27T07:10:00.442Z,1.50
2022-07-27T07:12:28.432Z,1.90
2022-07-27T07:14:55.948Z,1.40
2022-07-27T07:17:23.392Z,1.70
2022-07-27T07:19:52.168Z,1.57
2022-07-27T07:22:19.616Z,1.60
2022-07-27T07:24:47.095Z,1.50
2022-07-27T07:27:14.623Z,1.77
2022-07-27T07:29:42.029Z,1.60
2022-07-27T07:32:09.418Z,1.60
2022-07-27T07:34:36.846Z,1.87
2022-07-27T07:37:05.691Z,1.57
2022-07-27T07:39:33.273Z,1.40
2022-07-27T07:42:00.721Z,1.30
2022-07-27T07:44:28.179Z,1.37
2022-07-27T07:46:55.713Z,1.40
2022-07-27T07:49:37.728Z,1.30
2022-07-27T07:52:09.199Z,1.40
2022-07-27T07:54:36.656Z,1.40
2022-07-27T07:57:04.231Z,1.30
2022-07-27T07:59:31.744Z,1.30
2022-07-27T08:01:59.464Z,1.33
2022-07-27T08:04:27.033Z,1.20
2022-07-27T08:06:54.453Z,1.63
2022-07-27T08:09:26.753Z,1.20
2022-07-27T08:11:54.184Z,1.47
2022-07-27T08:14:21.643Z,1.10
2022-07-27T08:16:49.176Z,1.40
2022-07-27T08:19:16.733Z,1.53
2022-07-27T08:21:44.555Z,1.50
2022-07-27T08:24:12.028Z,1.20
2022-07-27T08:26:40.841Z,1.17
2022-07-27T08:29:13.560Z,1.37
2022-07-27T08:31:51.101Z,1.30
2022-07-27T08:34:19.556Z,1.17
2022-07-27T08:36:47.045Z,1.30
2022-07-27T08:39:41.155Z,1.10
2022-07-27T08:42:04.696Z,1.30
2022-07-27T08:44:32.726Z,1.40
2022-07-27T08:47:02.054Z,1.47
2022-07-27T08:49:42.440Z,1.20
2022-07-27T08:52:11.578Z,1.00
2022-07-27T08:54:39.794Z,1.30
2022-07-27T08:57:09.765Z,1.13
2022-07-27T08:59:37.494Z,1.10
2022-07-27T09:02:05.874Z,1.30
2022-07-27T09:04:33.392Z,1.10
2022-07-27T09:07:00.892Z,1.03
2022-07-27T09:09:28.388Z,1.40
2022-07-27T09:12:10.307Z,1.43
2022-07-27T09:14:38.860Z,1.13
2022-07-27T09:20:08.794Z,1.13
2022-07-27T09:22:39.451Z,1.20
2022-07-27T09:25:07.293Z,1.17
2022-07-27T09:27:37.029Z,1.20
2022-07-27T09:30:05.161Z,1.20
2022-07-27T09:32:32.619Z,1.20
2022-07-27T09:35:00.150Z,1.00
2022-07-27T09:37:28.672Z,1.00
2022-07-27T09:40:10.912Z,1.10
2022-07-27T09:43:06.606Z,0.90
2022-07-27T09:45:32.723Z,1.00
2022-07-27T09:48:08.206Z,1.13
2022-07-27T09:50:36.114Z,1.30
2022-07-27T09:53:41.878Z,1.20
2022-07-27T09:56:01.509Z,0.90
2022-07-27T09:58:46.734Z,1.23
2022-07-27T10:01:15.178Z,1.23
2022-07-27T10:03:43.053Z,1.10
2022-07-27T10:06:10.886Z,1.00
2022-07-27T10:08:38.932Z,1.13
2022-07-27T10:11:07.343Z,1.40
2022-07-27T10:13:36.560Z,1.00
2022-07-27T10:16:14.897Z,1.03
2022-07-27T10:18:56.450Z,1.13
2022-07-27T10:21:24.337Z,1.10
2022-07-27T10:23:55.700Z,1.20
2022-07-27T10:26:28.702Z,1.17
2022-07-27T10:28:56.793Z,1.50
2022-07-27T10:31:26.868Z,1.10
2022-07-27T10:33:54.829Z,1.07
2022-07-27T10:36:37.166Z,1.00
2022-07-27T10:39:05.983Z,1.30
2022-07-27T10:41:34.290Z,1.10
2022-07-27T10:44:20.994Z,1.10
2022-07-27T10:46:53.752Z,1.23
2022-07-27T10:49:21.854Z,1.70
2022-07-27T10:51:49.835Z,1.30
2022-07-27T10:54:21.296Z,1.20
2022-07-27T10:56:49.542Z,1.03
2022-07-27T11:00:07.409Z,1.43
2022-07-27T11:02:39.375Z,1.30
2022-07-27T11:05:07.605Z,1.20
2022-07-27T11:07:44.668Z,1.40
2022-07-27T11:10:12.987Z,1.40
2022-07-27T11:12:41.388Z,1.67
2022-07-27T11:15:09.316Z,1.50
2022-07-27T11:20:28.712Z,1.53
2022-07-27T11:23:49.789Z,1.63
2022-07-27T11:25:57.831Z,1.53
2022-07-27T11:28:28.997Z,1.50
2022-07-27T11:30:57.105Z,1.90
2022-07-27T11:33:25.095Z,1.80
2022-07-27T11:35:55.816Z,1.70
2022-07-27T11:38:23.718Z,1.70
2022-07-27T11:40:57.112Z,1.83
2022-07-27T11:43:37.693Z,1.97
2022-07-27T11:46:13.042Z,1.90
2022-07-27T11:49:05.489Z,1.83
2022-07-27T11:51:35.937Z,1.77
2022-07-27T11:54:04.337Z,2.03
2022-07-27T11:56:33.493Z,1.47
2022-07-27T11:59:08.188Z,2.00
2022-07-27T12:01:36.665Z,1.77
2022-07-27T12:04:05.842Z,1.90
2022-07-27T12:06:34.282Z,2.03
2022-07-27T12:09:04.629Z,1.90
2022-07-27T12:11:45.143Z,1.60
2022-07-27T12:14:13.037Z,1.80
2022-07-27T12:16:40.696Z,2.00
2022-07-27T12:19:09.644Z,2.07
2022-07-27T12:21:37.333Z,1.87
2022-07-27T12:24:07.139Z,2.30
2022-07-27T12:26:34.593Z,2.00
2022-07-27T12:29:09.298Z,2.30
2022-07-27T12:31:37.616Z,2.30
2022-07-27T12:34:06.893Z,2.20
2022-07-27T12:36:34.580Z,2.17
2022-07-27T12:39:02.041Z,2.20
2022-07-27T12:41:35.363Z,2.30
2022-07-27T12:44:06.592Z,1.90
2022-07-27T12:46:34.117Z,1.97
2022-07-27T12:49:01.675Z,1.90
2022-07-27T12:51:29.218Z,1.83
2022-07-27T12:53:56.715Z,1.60
2022-07-27T12:56:27.586Z,1.67
2022-07-27T12:59:00.583Z,1.67
2022-07-27T13:01:28.061Z,2.00
2022-07-27T13:03:55.567Z,1.90
2022-07-27T13:06:23.202Z,1.53
2022-07-27T13:08:50.690Z,1.70
2022-07-27T13:11:18.177Z,1.60
2022-07-27T13:13:45.627Z,1.77
2022-07-27T13:16:14.538Z,1.70
2022-07-27T13:18:42.076Z,1.90
2022-07-27T13:21:09.562Z,1.80
2022-07-27T13:23:37.088Z,1.70
2022-07-27T13:26:04.545Z,1.80
2022-07-27T13:28:32.012Z,1.70
2022-07-27T13:30:59.471Z,1.80
2022-07-27T13:33:29.577Z,1.83
2022-07-27T13:36:00.137Z,2.00
2022-07-27T13:38:29.383Z,1.70
2022-07-27T13:40:56.883Z,1.83
2022-07-27T13:43:24.437Z,1.97
2022-07-27T13:45:51.926Z,2.33
2022-07-27T13:48:19.465Z,2.00
2022-07-27T13:50:48.279Z,2.10
2022-07-27T13:53:17.087Z,2.00
2022-07-27T13:55:44.921Z,1.87
2022-07-27T13:58:12.836Z,2.00
2022-07-27T14:00:40.730Z,2.30
2022-07-27T14:03:09.479Z,2.17
2022-07-27T14:05:41.934Z,2.00
2022-07-27T14:08:18.636Z,1.90
2022-07-27T14:10:46.171Z,1.90
2022-07-27T14:13:14.250Z,2.10
2022-07-27T14:15:50.538Z,1.90
2022-07-27T14:18:22.584Z,2.20
2022-07-27T14:20:50.065Z,2.17
2022-07-27T14:23:18.871Z,2.50
2022-07-27T14:25:46.510Z,2.10
2022-07-27T14:28:14.049Z,2.27
2022-07-27T14:30:41.539Z,2.00
2022-07-27T14:33:09.039Z,2.20
2022-07-27T14:35:40.537Z,2.20
2022-07-27T14:38:08.512Z,2.10
2022-07-27T14:40:37.583Z,2.23
2022-07-27T14:43:05.364Z,2.23
2022-07-27T14:45:44.592Z,2.30
2022-07-27T14:48:20.351Z,2.23
2022-07-27T14:50:52.710Z,2.20
2022-07-27T14:53:20.211Z,2.40
2022-07-27T14:55:49.105Z,2.40
2022-07-27T14:58:16.581Z,2.17
2022-07-27T15:00:44.089Z,2.10
2022-07-27T15:03:14.915Z,1.80
2022-07-27T15:05:50.603Z,2.00
2022-07-27T15:08:18.885Z,2.03
2022-07-27T15:10:47.048Z,2.00
2022-07-27T15:13:15.927Z,1.93
2022-07-27T15:15:43.469Z,2.20
2022-07-27T15:18:11.032Z,2.10
2022-07-27T15:20:38.495Z,2.40
2022-07-27T15:23:06.723Z,2.60
2022-07-27T15:25:34.353Z,2.37
2022-07-27T15:28:01.961Z,2.30
2022-07-27T15:30:34.971Z,2.20
2022-07-27T15:33:05.404Z,2.40
2022-07-27T15:35:32.868Z,2.37
2022-07-27T15:38:00.323Z,2.37
2022-07-27T15:40:41.713Z,2.30
2022-07-27T15:43:11.714Z,2.33
2022-07-27T15:45:41.041Z,2.23
2022-07-27T15:48:10.180Z,2.17
2022-07-27T15:50:37.716Z,2.37
2022-07-27T15:53:05.631Z,2.23
2022-07-27T15:55:33.526Z,2.27
2022-07-27T15:58:00.964Z,2.27
2022-07-27T16:00:28.746Z,2.50
2022-07-27T16:02:57.957Z,2.20
2022-07-27T16:05:26.980Z,2.73
2022-07-27T16:07:54.449Z,2.60
2022-07-27T16:10:21.982Z,2.60
2022-07-27T16:12:49.730Z,2.90
2022-07-27T16:15:17.226Z,2.90
2022-07-27T16:17:44.648Z,2.60
2022-07-27T16:20:13.573Z,2.60
2022-07-27T16:22:41.013Z,3.03
2022-07-27T16:25:08.613Z,2.80
2022-07-27T16:27:36.148Z,2.50
2022-07-27T16:30:03.801Z,2.40
2022-07-27T16:32:32.248Z,2.80
2022-07-27T16:34:59.675Z,2.63
2022-07-27T16:37:28.584Z,2.33
2022-07-27T16:39:56.019Z,2.30
2022-07-27T16:42:23.513Z,2.47
2022-07-27T16:44:51.035Z,1.90
2022-07-27T16:47:18.483Z,2.10
2022-07-27T16:49:45.961Z,2.30
2022-07-27T16:52:13.469Z,2.27
2022-07-27T16:54:42.274Z,1.97
2022-07-27T16:57:10.616Z,2.10
2022-07-27T16:59:39.310Z,2.10
2022-07-27T17:02:06.964Z,1.83
2022-07-27T17:04:34.619Z,1.90
2022-07-27T17:07:02.144Z,1.90
2022-07-27T17:09:29.746Z,1.77
2022-07-27T17:11:58.590Z,1.90
2022-07-27T17:14:26.399Z,1.90
2022-07-27T17:16:53.854Z,1.70
2022-07-27T17:19:21.539Z,1.80
2022-07-27T17:21:49.003Z,1.63
2022-07-27T17:24:16.586Z,1.60
2022-07-27T17:26:44.017Z,1.50
2022-07-27T17:29:13.300Z,1.80
2022-07-27T17:31:41.134Z,1.73
2022-07-27T17:34:08.691Z,1.97
2022-07-27T17:36:36.172Z,1.70
2022-07-27T17:39:05.737Z,1.50
2022-07-27T17:41:33.753Z,1.60
2022-07-27T17:44:02.657Z,1.70
2022-07-27T17:46:34.380Z,1.40
2022-07-27T17:49:06.082Z,1.40
2022-07-27T17:51:34.717Z,1.40
2022-07-27T17:54:03.748Z,1.77
2022-07-27T17:56:32.462Z,1.30
2022-07-27T17:59:14.278Z,1.60
2022-07-27T18:01:48.845Z,1.27
2022-07-27T18:04:16.563Z,1.20
2022-07-27T18:06:44.078Z,1.53
2022-07-27T18:09:11.871Z,1.40
2022-07-27T18:11:39.652Z,1.47
2022-07-27T18:14:07.122Z,1.50
2022-07-27T18:16:39.971Z,1.37
2022-07-27T18:19:09.482Z,1.40
2022-07-27T18:21:37.161Z,1.60
2022-07-27T18:24:05.207Z,1.40
2022-07-27T18:26:32.689Z,1.53
2022-07-27T18:29:00.135Z,1.67
2022-07-27T18:31:27.663Z,1.47
2022-07-27T18:33:55.944Z,1.40
2022-07-27T18:36:25.366Z,1.50
2022-07-27T18:38:53.423Z,1.30
2022-07-27T18:41:21.252Z,1.43
2022-07-27T18:43:52.004Z,1.50
2022-07-27T18:46:19.900Z,1.60
2022-07-27T18:48:47.763Z,1.40
2022-07-27T18:51:15.451Z,1.57
2022-07-27T18:53:45.011Z,1.33
2022-07-27T18:56:13.023Z,1.17
2022-07-27T18:58:40.771Z,1.50
2022-07-27T19:01:09.327Z,1.50
2022-07-27T19:03:37.152Z,1.50
2022-07-27T19:06:07.385Z,1.40
2022-07-27T19:08:37.353Z,1.40
2022-07-27T19:11:06.207Z,1.40
2022-07-27T19:13:33.775Z,1.30
2022-07-27T19:16:01.352Z,1.37
2022-07-27T19:18:28.813Z,1.30
2022-07-27T19:20:56.319Z,1.43
2022-07-27T19:23:24.948Z,1.60
2022-07-27T19:25:52.744Z,1.47
2022-07-27T19:28:22.103Z,1.57
2022-07-27T19:30:49.622Z,1.50
2022-07-27T19:33:17.432Z,1.30
2022-07-27T19:35:44.908Z,1.57
2022-07-27T19:38:13.101Z,1.53
2022-07-27T19:40:44.619Z,1.40
2022-07-27T19:43:12.699Z,1.57
2022-07-27T19:45:41.719Z,1.60
2022-07-27T19:48:09.295Z,1.60
2022-07-27T19:50:36.728Z,1.50
2022-07-27T19:53:04.279Z,1.40
2022-07-27T19:55:31.821Z,1.50
2022-07-27T19:57:59.441Z,1.50
2022-07-27T20:00:26.929Z,1.53
2022-07-27T20:02:55.816Z,1.60
2022-07-27T20:05:23.400Z,1.40
2022-07-27T20:07:50.852Z,1.50
2022-07-27T20:10:18.358Z,1.60
2022-07-27T20:12:46.033Z,1.50
2022-07-27T20:15:13.575Z,1.53
2022-07-27T20:17:41.039Z,1.63
2022-07-27T20:20:11.644Z,1.57
2022-07-27T20:22:40.889Z,1.50
2022-07-27T20:25:09.900Z,1.40
2022-07-27T20:27:37.745Z,1.60
2022-07-27T20:30:05.604Z,1.53
2022-07-27T20:32:33.145Z,1.37
2022-07-27T20:35:01.233Z,1.60
2022-07-27T20:37:30.122Z,1.50
2022-07-27T20:39:57.594Z,1.50
2022-07-27T20:42:25.041Z,1.60
2022-07-27T20:44:52.629Z,1.50
2022-07-27T20:47:20.371Z,1.40
2022-07-27T20:49:47.881Z,1.90
2022-07-27T20:52:15.360Z,1.80
2022-07-27T20:54:44.196Z,1.60
2022-07-27T20:57:11.655Z,1.50
2022-07-27T20:59:39.107Z,1.60
2022-07-27T21:02:07.644Z,1.60
2022-07-27T21:04:35.397Z,1.37
2022-07-27T21:07:02.931Z,1.70
2022-07-27T21:09:31.514Z,1.70
2022-07-27T21:12:00.417Z,1.50
2022-07-27T21:14:27.935Z,1.57
2022-07-27T21:16:55.491Z,1.47
2022-07-27T21:19:23.130Z,1.40
2022-07-27T21:21:50.670Z,1.80
2022-07-27T21:24:18.294Z,1.50
2022-07-27T21:26:48.725Z,1.47
2022-07-27T21:29:18.573Z,1.63
2022-07-27T21:31:49.137Z,1.50
2022-07-27T21:34:18.042Z,1.50
2022-07-27T21:36:45.593Z,2.20
2022-07-27T21:39:13.133Z,1.97
2022-07-27T21:41:40.546Z,1.50
2022-07-27T21:44:07.995Z,1.60
2022-07-27T21:46:37.041Z,1.60
2022-07-27T21:49:05.051Z,1.37
2022-07-27T21:51:32.627Z,1.53
2022-07-27T21:54:00.161Z,1.50
2022-07-27T21:56:28.667Z,1.60
2022-07-27T21:58:56.189Z,1.70
2022-07-27T22:01:23.962Z,1.73
2022-07-27T22:03:52.913Z,1.70
2022-07-27T22:06:20.479Z,1.30
2022-07-27T22:08:48.723Z,1.73
2022-07-27T22:11:16.177Z,1.60
2022-07-27T22:13:44.653Z,1.60
2022-07-27T22:16:13.226Z,1.60
2022-07-27T22:18:40.823Z,1.63
2022-07-27T22:21:09.890Z,1.60
2022-07-27T22:23:37.345Z,1.40
2022-07-27T22:26:06.308Z,1.60
2022-07-27T22:28:33.792Z,1.73
2022-07-27T22:31:22.844Z,1.53
2022-07-27T22:33:49.287Z,1.57
2022-07-27T22:36:18.114Z,1.87
2022-07-27T22:38:45.564Z,1.80
2022-07-27T22:41:13.043Z,1.80
2022-07-27T22:43:40.524Z,1.60
2022-07-27T22:46:08.120Z,1.50
2022-07-27T22:48:35.667Z,1.60
2022-07-27T22:51:03.222Z,1.70
2022-07-27T22:53:32.043Z,1.43
2022-07-27T22:55:59.504Z,1.70
2022-07-27T22:58:26.944Z,1.47
2022-07-27T23:00:59.079Z,1.80
2022-07-27T23:03:27.237Z,1.40
2022-07-27T23:05:54.675Z,1.57
2022-07-27T23:08:22.135Z,1.37
2022-07-27T23:10:50.937Z,1.40
2022-07-27T23:13:19.052Z,1.50
2022-07-27T23:15:47.003Z,1.40
2022-07-27T23:18:14.495Z,1.77
2022-07-27T23:20:42.328Z,1.50
2022-07-27T23:23:15.449Z,1.53
2022-07-27T23:25:43.381Z,1.43
2022-07-27T23:28:12.319Z,1.60
2022-07-27T23:30:39.864Z,1.50
2022-07-27T23:33:07.353Z,1.60
2022-07-27T23:35:35.077Z,1.57
2022-07-27T23:38:02.620Z,1.40
2022-07-27T23:40:30.091Z,1.40
2022-07-27T23:42:57.663Z,1.50
2022-07-27T23:45:27.412Z,1.47
2022-07-27T23:47:54.955Z,1.83
2022-07-27T23:50:22.616Z,1.50
2022-07-27T23:52:50.135Z,1.77
2022-07-27T23:55:17.576Z,1.27
2022-07-27T23:57:45.105Z,1.47
